Aviation Digital Data Service (ADDS)

Output produced by TAFs form (1129 UTC 19 January 2018)
found at http://www.aviationweather.gov/adds/tafs/
 
RJFR 191100Z 21006KT 9999 FEW030 08/04 Q1019
TAF RJFR 190511Z 1906/2012 32007KT 7000 FEW030 SCT045